Marshfield, MA (02050)

5:17 AM EST on January 18, 2017 (GMT -0500)
Near Marshfield Country Club | | Change Station
Active Advisory: Small Craft Advisory Active Notice: Public Information Statement

Elev 75 ft 42.08 °N, 70.71 °W | Updated 20 seconds ago

Rain
Rain
37.5 °F
Feels Like 38 °F
N
0.0
Wind Variable Wind from ESE
Gusts 5.0 mph

Today
High -- | Low -- °F
--% Chance of Precip.
Yesterday
High -- | Low -- °F
Precip. -- in
Pressure 29.98 in
Visibility 4.0 miles
Clouds Mostly Cloudy 900 ft
Overcast 1300 ft
Windchill 38 °F
Dew Point 37 °F
Humidity 99%
Rainfall 0.13 in
Snow Depth Not available.
7:06 AM 4:40 PM
Waning Gibbous, 64% visible
METAR KGHG 180955Z AUTO 10012KT 4SM -UP BKN009 OVC013 04/03 A2998 RMK AO2 P0003
Pressure 29.98 in
Visibility 4.0 miles
Clouds Mostly Cloudy 900 ft
Overcast 1300 ft
Windchill 38 °F
Dew Point 37 °F
Humidity 99%
Rainfall 0.13 in
Snow Depth Not available.
7:06 AM 4:40 PM
Waning Gibbous, 64% visible
METAR KGHG 180955Z AUTO 10012KT 4SM -UP BKN009 OVC013 04/03 A2998 RMK AO2 P0003

Get Your Daily Forecast Email!

Thanks for signing up!

Be on the lookout for a verification email in your inbox.

You'll start receiving the daily forecast at 8 AM.

×

10-Day Weather Forecast

Almanac

Astronomy

Jan. 18, 2017 Rise Set
Actual Time
Civil Twilight
Nautical Twilight
Astronomical Twilight
Moon
Length of Visible Light
Length of Day
Tomorrow will be .
, % of the Moon is Illuminated

Today's Extremes

State Highs State Lows

Community

WunderPhotos

Upload Photos

1,962,540 photos uploaded!

WunderBlog® & News

Nearby

Air Quality

  Air Quality AQ Index Pollutant
Not available.

Snow Depth

Station Depth Elevation

Earthquake Activity

City Distance Mag. Time & Date
Minimum magnitude displayed is 2.5.

Coastal Water Temperatures

Place Temperature

Stations

Nearby Weather Stations

Station Location Temp. Windchill Dew Point Humidity Wind Precip. Elev Updated Type
                   

Watches & Warnings

Small Craft Advisory
Issued: 3:54 AM EST Jan. 18, 2017 – National Weather Service

... Small Craft Advisory until 7 PM EST Thursday...

* winds and seas... northeast winds 10 to 20 kt with gusts up to
25 kt. Seas 5 to 8 feet.

Precautionary/preparedness actions...

A Small Craft Advisory means that wind speeds of 25 to 33 knots
are expected to produce hazardous wave conditions to small craft.
Inexperienced mariners... especially those operating smaller
vessels should avoid navigating in these conditions.